Time;durP1;ratioP1;P1;durP2;ratioP2;P2;SDS_P1;SDS_P2;PMS_P1;PMS_P2;Temp;Humidity;BMP_temperature;BMP_pressure;BME280_temperature;BME280_humidity;BME280_pressure;Samples;Min_cycle;Max_cycle;Signal;HPM_P1;HPM_P2
2024/01/18 04:08:22;;;;;;;;;;;;;;;-4.47;100.00;98507.06;4879262;29;20495;-91
2024/01/18 04:10:56;;;;;;;23.20;9.50;;;;;;;-4.55;100.00;98501.88;4863711;29;19930;-89
2024/01/18 04:13:28;;;;;;;17.47;9.93;;;;;;;-4.58;100.00;98514.75;4848311;29;20051;-88
2024/01/18 04:16:01;;;;;;;24.10;10.43;;;;;;;-4.73;100.00;98512.09;4879209;29;20403;-89
2024/01/18 04:18:33;;;;;;;18.83;10.60;;;;;;;-4.69;100.00;98516.44;4862613;29;20430;-88
2024/01/18 04:21:07;;;;;;;20.77;10.50;;;;;;;-4.80;100.00;98515.47;4848591;29;20135;-89
2024/01/18 04:36:00;;;;;;;20.80;10.33;;;;;;;-4.77;100.00;98517.25;5076159;27;20418;-88
2024/01/18 04:38:30;;;;;;;20.10;11.17;;;;;;;-4.95;100.00;98520.56;5064023;28;20047;-89
2024/01/18 04:41:00;;;;;;;15.90;9.27;;;;;;;-5.08;100.00;98524.75;5046047;28;20049;-88
2024/01/18 04:43:28;;;;;;;22.57;9.70;;;;;;;-5.04;100.00;98533.34;5032172;28;20117;-89
2024/01/18 04:45:55;;;;;;;19.03;10.07;;;;;;;-5.00;100.00;98537.69;5055625;28;20120;-89
2024/01/18 04:48:22;;;;;;;19.33;9.83;;;;;;;-5.19;100.00;98532.41;5034089;28;20075;-88
2024/01/18 04:50:50;;;;;;;17.77;9.07;;;;;;;-5.28;100.00;98537.47;5061337;28;20045;-88
2024/01/18 04:53:17;;;;;;;19.30;10.20;;;;;;;-5.26;100.00;98543.47;5054647;28;20037;-89
2024/01/18 04:55:44;;;;;;;18.07;10.13;;;;;;;-5.32;100.00;98542.56;5066611;28;20044;-90
2024/01/18 04:58:11;;;;;;;20.13;10.30;;;;;;;-5.30;100.00;98543.44;5073587;23;20028;-88
2024/01/18 05:00:38;;;;;;;20.03;10.87;;;;;;;-5.35;100.00;98556.28;5041928;28;20488;-90
2024/01/18 05:03:07;;;;;;;16.73;9.60;;;;;;;-5.38;100.00;98559.69;5049015;28;20047;-88
2024/01/18 05:05:37;;;;;;;20.93;11.47;;;;;;;-5.32;100.00;98558.84;5037855;28;20194;-89
2024/01/18 05:08:05;;;;;;;22.13;10.60;;;;;;;-5.39;100.00;98560.50;5042064;28;20037;-88
2024/01/18 05:10:32;;;;;;;17.50;9.43;;;;;;;-5.38;100.00;98549.41;5046245;28;20091;-90
2024/01/18 05:12:59;;;;;;;18.33;9.33;;;;;;;-5.27;100.00;98552.06;5019937;28;20044;-88
2024/01/18 05:15:26;;;;;;;21.87;10.93;;;;;;;-5.27;100.00;98540.91;5041261;28;20053;-90
2024/01/18 05:17:54;;;;;;;19.13;10.13;;;;;;;-5.27;100.00;98549.47;5046088;28;20043;-87
2024/01/18 05:20:21;;;;;;;20.20;10.93;;;;;;;-5.31;100.00;98552.84;5059952;28;20124;-87
2024/01/18 05:22:48;;;;;;;24.00;10.87;;;;;;;-5.12;100.00;98552.19;5051072;28;20052;-87
2024/01/18 05:25:15;;;;;;;29.30;10.77;;;;;;;-5.25;100.00;98546.91;5015445;28;20044;-88
2024/01/18 05:27:42;;;;;;;23.50;10.30;;;;;;;-5.15;100.00;98564.16;5017784;28;20039;-87
2024/01/18 05:30:10;;;;;;;20.57;10.13;;;;;;;-5.21;100.00;98561.56;5038202;28;20467;-89
2024/01/18 05:32:37;;;;;;;16.83;9.23;;;;;;;-5.26;100.00;98571.78;5021659;28;20042;-89
2024/01/18 05:35:05;;;;;;;21.27;10.97;;;;;;;-5.24;100.00;98582.09;5010185;28;20034;-89
2024/01/18 05:37:32;;;;;;;21.27;10.80;;;;;;;-5.15;100.00;98584.75;5015402;28;20521;-89
2024/01/18 05:39:59;;;;;;;23.30;12.37;;;;;;;-5.10;100.00;98581.38;5001431;28;20093;-89
2024/01/18 05:42:27;;;;;;;19.97;9.70;;;;;;;-5.04;100.00;98575.44;5022798;28;20049;-90
2024/01/18 05:44:54;;;;;;;23.00;10.73;;;;;;;-5.00;100.00;98571.16;4989181;28;20120;-90
2024/01/18 05:47:21;;;;;;;23.30;11.23;;;;;;;-5.05;100.00;98576.25;5013292;28;20128;-89
2024/01/18 05:49:48;;;;;;;20.67;10.83;;;;;;;-4.95;100.00;98585.78;5039100;28;20041;-90
2024/01/18 05:52:16;;;;;;;20.77;10.77;;;;;;;-4.95;100.00;98590.94;4982509;28;20095;-87
2024/01/18 05:54:43;;;;;;;25.03;11.70;;;;;;;-4.81;100.00;98597.03;5009476;28;20044;-89
2024/01/18 05:57:10;;;;;;;24.73;11.73;;;;;;;-4.71;100.00;98594.53;4998821;28;20060;-89
2024/01/18 05:59:37;;;;;;;22.93;11.73;;;;;;;-4.67;100.00;98592.00;4998518;28;20491;-89
2024/01/18 06:02:04;;;;;;;24.60;11.90;;;;;;;-4.67;100.00;98589.44;5009940;28;20137;-89
2024/01/18 06:04:32;;;;;;;26.53;13.30;;;;;;;-4.64;100.00;98596.31;5039538;28;20038;-89
2024/01/18 06:06:59;;;;;;;26.10;12.20;;;;;;;-4.62;100.00;98605.78;5007630;28;20484;-89
2024/01/18 06:09:26;;;;;;;24.47;12.17;;;;;;;-4.60;100.00;98611.81;5016455;28;20099;-89
2024/01/18 06:11:54;;;;;;;24.20;11.80;;;;;;;-4.65;100.00;98618.63;5016907;28;20058;-89
2024/01/18 06:14:21;;;;;;;22.50;11.43;;;;;;;-4.63;100.00;98627.22;5004935;28;20049;-89
2024/01/18 06:16:48;;;;;;;25.47;13.03;;;;;;;-4.61;100.00;98628.13;5032462;28;20092;-89
2024/01/18 06:19:15;;;;;;;34.90;15.37;;;;;;;-4.55;100.00;98642.75;5020319;28;20048;-87
2024/01/18 06:21:43;;;;;;;63.80;27.20;;;;;;;-4.48;100.00;98638.50;5023457;28;20514;-89
2024/01/18 06:24:10;;;;;;;58.70;24.40;;;;;;;-4.46;100.00;98649.69;5006375;28;20038;-89
2024/01/18 06:26:38;;;;;;;575.77;223.37;;;;;;;-4.41;100.00;98648.88;4992796;28;20526;-88
2024/01/18 06:29:05;;;;;;;367.50;151.40;;;;;;;-4.36;100.00;98646.34;4995884;28;20396;-89
2024/01/18 06:31:32;;;;;;;168.43;67.73;;;;;;;-4.34;100.00;98660.09;5029077;28;20048;-88
2024/01/18 06:33:59;;;;;;;40.00;18.30;;;;;;;-4.23;100.00;98652.41;4995904;28;20053;-89
2024/01/18 06:36:26;;;;;;;61.50;37.43;;;;;;;-4.25;100.00;98653.28;4991121;28;20099;-89
2024/01/18 06:38:54;;;;;;;59.50;34.97;;;;;;;-4.19;100.00;98656.75;5005549;28;20073;-87
2024/01/18 06:41:21;;;;;;;45.63;24.00;;;;;;;-4.22;100.00;98662.72;5008394;28;20485;-89
2024/01/18 06:43:50;;;;;;;33.37;18.17;;;;;;;-4.20;100.00;98662.75;5050403;28;20044;-89
2024/01/18 06:46:18;;;;;;;39.83;17.17;;;;;;;-4.18;100.00;98667.06;4990562;28;20389;-89
2024/01/18 06:48:52;;;;;;;33.97;16.17;;;;;;;-4.16;100.00;98665.34;4995048;28;20133;-88
2024/01/18 06:51:21;;;;;;;33.90;15.47;;;;;;;-4.19;100.00;98669.66;4987538;28;20570;-89
2024/01/18 06:53:50;;;;;;;37.60;16.27;;;;;;;-4.20;100.00;98671.38;4994864;28;20045;-89
2024/01/18 06:56:17;;;;;;;34.03;16.57;;;;;;;-4.20;100.00;98686.84;4987818;28;20682;-89
2024/01/18 06:58:44;;;;;;;37.43;18.87;;;;;;;-4.22;100.00;98691.09;4998782;28;20080;-91
2024/01/18 07:01:12;;;;;;;35.73;17.10;;;;;;;-4.22;100.00;98692.81;5013688;28;20141;-89
2024/01/18 07:03:42;;;;;;;31.40;15.73;;;;;;;-4.27;100.00;98687.63;5013885;28;20048;-89
2024/01/18 07:06:09;;;;;;;32.13;16.03;;;;;;;-4.33;100.00;98688.44;4997175;28;20457;-89
2024/01/18 07:08:37;;;;;;;30.53;16.53;;;;;;;-4.36;100.00;98695.31;4997773;28;20045;-89
2024/01/18 07:11:04;;;;;;;28.10;14.17;;;;;;;-4.41;100.00;98689.25;4997865;28;20076;-88
2024/01/18 07:13:31;;;;;;;28.80;14.43;;;;;;;-4.47;100.00;98690.06;5012878;28;20073;-90
2024/01/18 07:15:59;;;;;;;33.33;14.87;;;;;;;-4.50;100.00;98684.88;4997216;28;20061;-87
2024/01/18 07:18:26;;;;;;;34.30;17.00;;;;;;;-4.56;100.00;98690.84;5012373;28;20053;-89
2024/01/18 07:20:54;;;;;;;31.30;15.90;;;;;;;-4.56;100.00;98697.72;5022325;28;20132;-89
2024/01/18 07:23:21;;;;;;;29.73;14.67;;;;;;;-4.55;100.00;98702.88;5002074;28;20653;-88
2024/01/18 07:25:48;;;;;;;30.70;15.63;;;;;;;-4.53;100.00;98695.19;5013584;28;20109;-89
2024/01/18 07:28:15;;;;;;;29.90;14.53;;;;;;;-4.46;100.00;98704.66;5013209;28;20122;-89
2024/01/18 07:30:46;;;;;;;31.80;15.67;;;;;;;-4.41;100.00;98697.84;5007411;28;20041;-88
2024/01/18 07:33:14;;;;;;;32.50;15.93;;;;;;;-4.36;100.00;98708.19;5023773;28;20053;-88
2024/01/18 07:35:42;;;;;;;29.40;15.40;;;;;;;-4.31;100.00;98711.66;5029695;28;20077;-89
2024/01/18 07:38:09;;;;;;;30.27;16.63;;;;;;;-4.18;100.00;98723.78;5017373;28;20394;-89
2024/01/18 07:40:36;;;;;;;32.63;16.73;;;;;;;-4.10;100.00;98727.28;5012723;28;20132;-89
2024/01/18 07:43:03;;;;;;;32.30;14.87;;;;;;;-4.16;100.00;98719.50;4980788;28;20571;-88
2024/01/18 07:45:31;;;;;;;34.13;16.20;;;;;;;-4.16;100.00;98721.22;4997001;28;20444;-90
2024/01/18 07:47:58;;;;;;;30.67;16.10;;;;;;;-4.14;100.00;98732.41;5020790;28;20037;-90
2024/01/18 07:50:27;;;;;;;32.10;15.87;;;;;;;-4.13;100.00;98732.41;4992944;28;20058;-90
2024/01/18 07:53:03;;;;;;;31.40;16.63;;;;;;;-4.10;100.00;98735.03;5009285;28;20057;-90
2024/01/18 07:55:31;;;;;;;31.10;16.70;;;;;;;-4.10;100.00;98737.59;5011772;28;20139;-91
2024/01/18 07:57:59;;;;;;;30.33;15.20;;;;;;;-4.07;100.00;98740.19;4996367;28;20045;-91
2024/01/18 08:00:26;;;;;;;30.73;16.87;;;;;;;-3.96;100.00;98737.69;4980102;28;20053;-90
2024/01/18 08:02:53;;;;;;;36.47;17.67;;;;;;;-3.93;100.00;98735.16;5013117;28;20049;-90
2024/01/18 08:05:21;;;;;;;29.87;17.90;;;;;;;-3.90;100.00;98727.41;4991851;28;20038;-90
2024/01/18 08:07:49;;;;;;;25.33;15.80;;;;;;;-3.85;100.00;98730.03;4975812;28;20052;-90
2024/01/18 08:10:16;;;;;;;31.50;15.83;;;;;;;-3.81;100.00;98724.88;5007800;28;20054;-90
2024/01/18 08:12:44;;;;;;;30.30;17.13;;;;;;;-3.74;100.00;98730.94;4994241;28;20579;-90
2024/01/18 08:15:12;;;;;;;31.57;15.40;;;;;;;-3.62;100.00;98738.75;4978875;28;20050;-90
2024/01/18 08:17:40;;;;;;;34.17;17.23;;;;;;;-3.57;100.00;98741.38;4995015;28;20523;-90
2024/01/18 08:20:12;;;;;;;30.47;17.03;;;;;;;-3.41;100.00;98740.59;5007031;28;20045;-90
2024/01/18 08:22:48;;;;;;;34.33;16.05;;;;;;;-3.49;100.00;98740.53;5011043;28;20475;-90
2024/01/18 08:25:15;;;;;;;;;;;;;;;-3.33;100.00;98746.66;5011252;28;20048;-90
2024/01/18 08:27:43;;;;;;;31.10;14.70;;;;;;;-3.42;100.00;98746.59;5011293;28;19969;-91
2024/01/18 08:30:11;;;;;;;29.03;15.60;;;;;;;-3.44;100.00;98748.31;4994682;28;20135;-91
2024/01/18 08:32:38;;;;;;;32.93;16.40;;;;;;;-3.38;100.00;98742.31;5005653;28;20164;-90
2024/01/18 08:35:09;;;;;;;26.90;14.37;;;;;;;-3.33;100.00;98741.47;4974382;28;20043;-90
2024/01/18 08:37:37;;;;;;;29.30;15.23;;;;;;;-3.27;100.00;98749.25;5006947;28;20571;-89
2024/01/18 08:40:06;;;;;;;28.20;16.20;;;;;;;-3.22;100.00;98751.84;5007347;28;20416;-91
2024/01/18 08:42:33;;;;;;;35.13;17.30;;;;;;;-3.14;100.00;98761.34;4994674;28;20052;-90
2024/01/18 08:45:01;;;;;;;33.97;16.53;;;;;;;-3.18;100.00;98756.19;4995370;28;20057;-90
2024/01/18 08:47:29;;;;;;;34.63;16.83;;;;;;;-3.10;100.00;98772.56;4991605;28;20045;-91
2024/01/18 08:49:56;;;;;;;31.53;18.37;;;;;;;-3.05;100.00;98770.84;5007356;28;20458;-89
2024/01/18 08:52:23;;;;;;;34.43;17.60;;;;;;;-3.10;100.00;98771.72;5008611;28;20054;-91
2024/01/18 08:54:51;;;;;;;35.53;17.53;;;;;;;-3.11;100.00;98770.84;5000673;28;20091;-89
2024/01/18 08:57:19;;;;;;;35.37;18.03;;;;;;;-3.12;100.00;98766.50;4991048;28;20563;-88
2024/01/18 08:59:46;;;;;;;29.83;17.27;;;;;;;-3.25;100.00;98775.94;4994602;28;20056;-90
2024/01/18 09:02:14;;;;;;;27.90;15.67;;;;;;;-3.29;100.00;98783.66;5010414;28;20045;-91
2024/01/18 09:04:50;;;;;;;31.57;16.37;;;;;;;-3.31;100.00;98790.53;4980121;28;20484;-90
2024/01/18 09:07:18;;;;;;;25.37;15.00;;;;;;;-3.37;100.00;98782.75;5008081;28;20496;-90
2024/01/18 09:09:46;;;;;;;30.90;16.57;;;;;;;-3.36;100.00;98792.22;4993723;28;20045;-89
2024/01/18 09:12:14;;;;;;;29.37;16.50;;;;;;;-3.35;100.00;98792.25;4997525;28;20137;-90
2024/01/18 09:14:45;;;;;;;36.17;16.73;;;;;;;-3.31;100.00;98806.03;4997361;28;20049;-89
2024/01/18 09:17:12;;;;;;;31.63;17.03;;;;;;;-3.37;100.00;98811.16;4996708;28;20056;-89
2024/01/18 09:19:39;;;;;;;28.20;15.87;;;;;;;-3.32;100.00;98814.63;5011221;28;20103;-90
2024/01/18 09:22:06;;;;;;;30.37;16.60;;;;;;;-3.30;100.00;98807.75;4994939;28;20136;-89
2024/01/18 09:24:33;;;;;;;34.10;17.30;;;;;;;-3.30;100.00;98800.00;5010366;28;20057;-90
2024/01/18 09:27:01;;;;;;;33.23;17.90;;;;;;;-3.26;100.00;98815.53;4994282;28;20046;-90
2024/01/18 09:29:28;;;;;;;31.27;16.37;;;;;;;-3.34;100.00;98816.34;5012873;28;20071;-91
2024/01/18 09:31:56;;;;;;;35.73;17.77;;;;;;;-3.32;100.00;98828.41;5011563;28;20037;-90
2024/01/18 09:34:24;;;;;;;34.10;17.13;;;;;;;-3.41;100.00;98829.22;4979854;28;20046;-91
2024/01/18 09:36:51;;;;;;;31.83;17.40;;;;;;;-3.37;100.00;98836.97;4997465;28;20037;-89
2024/01/18 09:39:18;;;;;;;29.80;15.40;;;;;;;-3.25;100.00;98843.09;4982548;28;20045;-90
2024/01/18 09:41:51;;;;;;;32.87;16.33;;;;;;;-3.18;100.00;98838.81;4982979;28;20049;-89
2024/01/18 09:44:30;;;;;;;33.30;15.77;;;;;;;-3.07;100.00;98847.47;4994641;28;20045;-90
2024/01/18 09:46:59;;;;;;;32.07;17.73;;;;;;;-3.13;100.00;98857.78;4994998;28;20123;-91
2024/01/18 09:49:28;;;;;;;30.27;16.37;;;;;;;-3.01;100.00;98867.31;4962796;28;20083;-90
2024/01/18 09:51:57;;;;;;;30.47;17.53;;;;;;;-3.18;100.00;98874.97;4996506;28;20049;-91
2024/01/18 09:54:29;;;;;;;26.70;15.43;;;;;;;-3.28;100.00;98879.22;5014072;28;20143;-89
2024/01/18 09:57:00;;;;;;;31.53;16.03;;;;;;;-3.25;100.00;98870.63;4997124;28;20042;-88
2024/01/18 09:59:31;;;;;;;29.20;15.80;;;;;;;-3.31;100.00;98871.44;5012814;28;20046;-90
2024/01/18 10:01:58;;;;;;;36.87;16.10;;;;;;;-3.28;100.00;98870.59;5016930;28;20615;-89
2024/01/18 10:04:27;;;;;;;31.00;15.07;;;;;;;-3.43;100.00;98877.41;4980706;28;20558;-90
2024/01/18 10:06:55;;;;;;;35.37;16.37;;;;;;;-3.48;100.00;98888.53;4981486;28;20049;-90
2024/01/18 10:09:25;;;;;;;35.03;17.10;;;;;;;-3.53;100.00;98893.69;4996145;28;20144;-90
2024/01/18 10:11:53;;;;;;;35.87;17.50;;;;;;;-3.54;100.00;98891.06;5013538;28;20057;-91
2024/01/18 10:14:41;;;;;;;34.20;16.93;;;;;;;-3.66;100.00;98901.31;4981385;28;20049;-90
2024/01/18 10:17:29;;;;;;;35.43;17.27;;;;;;;-3.58;100.00;98905.69;5031069;28;20041;-90
2024/01/18 10:19:57;;;;;;;34.10;16.03;;;;;;;-3.44;100.00;98901.50;5019021;28;20200;-90
2024/01/18 10:22:25;;;;;;;32.30;15.57;;;;;;;-3.88;100.00;98897.69;5009840;28;20045;-90
2024/01/18 10:24:52;;;;;;;43.40;16.90;;;;;;;-3.77;100.00;98893.50;4993513;28;20045;-89
2024/01/18 10:27:19;;;;;;;30.17;15.50;;;;;;;-3.68;100.00;98903.88;5025748;28;20412;-90
2024/01/18 10:29:47;;;;;;;34.57;16.03;;;;;;;-3.68;100.00;98898.72;5007286;28;20037;-88
2024/01/18 10:32:16;;;;;;;32.23;14.57;;;;;;;-3.62;100.00;98893.59;4996210;28;20065;-89
2024/01/18 10:34:43;;;;;;;36.83;16.97;;;;;;;-3.42;100.00;98891.19;4991795;28;20045;-89
2024/01/18 10:37:17;;;;;;;32.97;14.50;;;;;;;-3.29;100.00;98897.28;5011290;28;20050;-88
2024/01/18 10:39:46;;;;;;;34.38;17.08;;;;;;;-3.18;100.00;98908.56;4996725;28;20132;-91
2024/01/18 10:42:14;;;;;;;35.23;15.40;;;;;;;-2.91;100.00;98906.13;4996670;28;20059;-90
2024/01/18 10:44:47;;;;;;;28.20;14.00;;;;;;;-2.84;100.00;98900.13;4996054;28;20045;-89
2024/01/18 10:47:15;;;;;;;29.47;14.53;;;;;;;-2.86;100.00;98912.19;5023899;28;20050;-90
2024/01/18 10:49:45;;;;;;;29.40;14.07;;;;;;;-2.84;100.00;98917.38;5009753;28;20052;-90
2024/01/18 10:52:15;;;;;;;25.60;14.30;;;;;;;-2.73;100.00;98909.66;4992586;28;20065;-90
2024/01/18 10:54:43;;;;;;;23.97;13.20;;;;;;;-2.80;100.00;98924.25;4993035;28;20068;-90
2024/01/18 10:57:21;;;;;;;28.03;14.20;;;;;;;-2.91;100.00;98926.78;5009917;28;20530;-89
2024/01/18 10:59:52;;;;;;;29.93;14.57;;;;;;;-2.83;100.00;98925.13;4996478;28;20408;-89
2024/01/18 12:37:55;;;;;;;21.97;11.43;;;;;;;-1.78;100.00;98950.44;4952193;28;20069;-88
2024/01/18 12:40:29;;;;;;;24.93;12.67;;;;;;;-1.72;100.00;98957.38;4933829;29;20070;-87
2024/01/18 12:43:03;;;;;;;27.03;12.67;;;;;;;-1.75;100.00;98954.78;4930077;29;20052;-88
2024/01/18 12:45:36;;;;;;;24.02;11.45;;;;;;;-1.80;100.00;98959.94;4931606;29;20052;-87
2024/01/18 12:48:04;;;;;;;21.90;12.27;;;;;;;-1.77;100.00;98961.66;4951544;29;20052;-87
2024/01/18 12:50:32;;;;;;;21.63;12.30;;;;;;;-1.80;100.00;98961.69;4931505;29;20425;-88
2024/01/18 12:53:00;;;;;;;25.57;12.77;;;;;;;-1.67;100.00;98957.41;4933647;29;20040;-87
2024/01/18 12:55:31;;;;;;;24.73;12.87;;;;;;;-1.73;100.00;98960.84;4936330;28;20039;-87
2024/01/18 12:57:58;;;;;;;27.73;12.80;;;;;;;-1.81;100.00;98963.41;4954791;29;20047;-88
2024/01/18 13:00:25;;;;;;;31.47;15.60;;;;;;;-1.83;100.00;98964.28;4937850;29;20432;-88
2024/01/18 13:02:53;;;;;;;26.50;12.53;;;;;;;-1.74;100.00;98969.47;4953240;28;20054;-88
2024/01/18 13:05:20;;;;;;;23.40;12.50;;;;;;;-1.67;100.00;98975.53;4937261;28;20502;-88
2024/01/18 13:07:48;;;;;;;27.93;13.67;;;;;;;-1.84;100.00;98972.91;4932742;29;20126;-88
2024/01/18 13:10:15;;;;;;;26.10;13.73;;;;;;;-1.88;100.00;98977.19;4937558;29;20054;-88
2024/01/18 13:12:44;;;;;;;25.13;13.20;;;;;;;-1.89;100.00;98972.88;4953258;29;20671;-88
2024/01/18 13:15:12;;;;;;;25.80;12.93;;;;;;;-1.66;100.00;98982.41;4936781;28;20079;-87
2024/01/18 13:17:41;;;;;;;26.77;12.73;;;;;;;-1.75;100.00;98989.31;4936224;29;20098;-87
2024/01/18 13:20:10;;;;;;;23.23;11.90;;;;;;;-1.78;100.00;98983.25;4919667;29;20506;-87
2024/01/18 13:22:38;;;;;;;29.33;14.50;;;;;;;-1.77;100.00;98985.81;4952115;29;20051;-88
2024/01/18 13:25:06;;;;;;;29.27;15.10;;;;;;;-1.71;100.00;98991.03;4949646;28;20103;-87
2024/01/18 13:27:33;;;;;;;32.80;14.00;;;;;;;-1.79;100.00;98992.72;4967001;28;20047;-87
2024/01/18 13:30:00;;;;;;;26.50;12.97;;;;;;;-1.87;100.00;98988.41;4968378;28;20053;-87
2024/01/18 13:32:28;;;;;;;27.33;13.87;;;;;;;-1.88;100.00;98989.25;4953308;28;20047;-88
2024/01/18 13:34:55;;;;;;;28.63;14.80;;;;;;;-1.89;100.00;98991.00;4949560;29;20050;-88
2024/01/18 13:37:22;;;;;;;29.80;15.27;;;;;;;-1.87;100.00;99006.53;4950271;29;20077;-88
2024/01/18 13:39:57;;;;;;;26.90;12.90;;;;;;;-1.92;100.00;99013.44;4922746;29;20187;-88
2024/01/18 13:42:24;;;;;;;27.23;13.40;;;;;;;-2.03;100.00;99013.38;4951766;29;20047;-87
2024/01/18 13:44:51;;;;;;;28.20;13.17;;;;;;;-1.98;100.00;99019.44;4953256;29;20043;-87
2024/01/18 13:47:18;;;;;;;28.87;14.87;;;;;;;-1.98;100.00;99024.59;4951291;28;20063;-88
2024/01/18 13:49:45;;;;;;;29.77;14.30;;;;;;;-2.03;100.00;99023.72;4933961;29;20046;-88
2024/01/18 13:52:16;;;;;;;28.83;15.23;;;;;;;-2.02;100.00;99025.44;4935482;29;20510;-87
2024/01/18 13:54:45;;;;;;;28.03;15.40;;;;;;;-2.06;100.00;99029.75;4951744;29;20051;-88
2024/01/18 13:57:12;;;;;;;27.10;14.87;;;;;;;-2.10;100.00;99040.06;4951276;28;20122;-88
2024/01/18 13:59:39;;;;;;;30.03;14.67;;;;;;;-2.10;100.00;99035.78;4951754;29;20047;-88
2024/01/18 14:02:06;;;;;;;31.80;15.87;;;;;;;-2.17;100.00;99044.38;4956830;28;20050;-88
2024/01/18 14:04:35;;;;;;;29.10;14.73;;;;;;;-2.05;100.00;99044.41;4927716;29;20063;-87
2024/01/18 14:07:03;;;;;;;27.70;15.50;;;;;;;-2.16;100.00;99048.69;4948451;29;20471;-88
2024/01/18 14:09:30;;;;;;;27.27;13.70;;;;;;;-2.12;100.00;99054.72;4941134;29;20051;-88
2024/01/18 14:12:00;;;;;;;33.00;14.33;;;;;;;-2.28;100.00;99053.78;4948202;29;20051;-88
2024/01/18 14:14:27;;;;;;;27.40;14.17;;;;;;;-2.30;100.00;99065.84;4926623;29;20146;-87
2024/01/18 14:16:57;;;;;;;31.90;15.00;;;;;;;-2.37;100.00;99064.94;4949771;29;20114;-88
2024/01/18 14:19:24;;;;;;;25.47;12.87;;;;;;;-2.38;100.00;99073.56;4933705;29;20043;-88
2024/01/18 14:21:52;;;;;;;26.77;14.73;;;;;;;-2.45;100.00;99079.56;4951342;29;20051;-88
2024/01/18 14:24:19;;;;;;;34.33;17.10;;;;;;;-2.46;100.00;99084.72;4935211;29;20123;-89
2024/01/18 14:26:47;;;;;;;28.57;14.47;;;;;;;-2.55;100.00;99085.53;4933036;28;20494;-88
2024/01/18 14:29:14;;;;;;;33.60;16.17;;;;;;;-2.55;100.00;99096.72;4946917;28;20058;-88
2024/01/18 14:31:41;;;;;;;30.30;15.53;;;;;;;-2.59;100.00;99101.88;4953624;28;20134;-88
2024/01/18 14:34:09;;;;;;;29.03;14.87;;;;;;;-2.64;100.00;99095.81;4942057;28;20047;-88
2024/01/18 14:36:36;;;;;;;29.43;14.10;;;;;;;-2.71;100.00;99099.19;4952011;29;20053;-88
2024/01/18 14:39:04;;;;;;;26.77;14.23;;;;;;;-2.76;100.00;99113.81;4937179;29;20058;-88
2024/01/18 14:41:31;;;;;;;26.03;13.73;;;;;;;-2.83;100.00;99110.31;4952053;29;20134;-88
2024/01/18 14:43:59;;;;;;;27.43;13.63;;;;;;;-2.84;100.00;99114.63;4950540;29;20062;-88
2024/01/18 14:46:26;;;;;;;28.77;15.40;;;;;;;-2.88;100.00;99120.59;4951355;28;20514;-88
2024/01/18 14:48:53;;;;;;;30.33;17.03;;;;;;;-2.94;100.00;99123.16;4934839;29;20055;-88
2024/01/18 14:51:20;;;;;;;31.37;15.97;;;;;;;-2.98;100.00;99131.72;4950633;29;20051;-87
2024/01/18 14:53:47;;;;;;;27.17;14.97;;;;;;;-3.06;100.00;99138.53;4950486;29;20451;-88
2024/01/18 14:56:15;;;;;;;33.13;17.30;;;;;;;-3.12;100.00;99139.31;4950183;28;20039;-88
2024/01/18 14:58:42;;;;;;;30.00;16.47;;;;;;;-3.14;100.00;99143.63;4934558;29;20047;-88
2024/01/18 15:01:10;;;;;;;35.83;17.33;;;;;;;-3.20;100.00;99150.44;4947139;29;20044;-88
2024/01/18 15:03:39;;;;;;;31.63;17.33;;;;;;;-3.25;100.00;99165.91;4932570;29;20078;-88
2024/01/18 15:10:53;;;;;;;29.00;15.27;;;;;;;-3.47;100.00;99172.53;4967130;28;20074;-93
2024/01/18 15:14:52;;;;;;;27.93;13.70;;;;;;;-3.58;100.00;99166.38;4961440;29;20166;-92
2024/01/18 15:18:37;;;;;;;26.60;13.40;;;;;;;-3.67;100.00;99183.47;4963480;29;20051;-93
2024/01/18 15:26:25;;;;;;;31.13;14.80;;;;;;;-3.95;100.00;99193.44;4962131;28;20039;-91
2024/01/18 15:28:55;;;;;;;29.03;15.27;;;;;;;-4.01;100.00;99199.38;4944951;29;20058;-93
2024/01/18 15:31:29;;;;;;;29.87;15.20;;;;;;;-4.06;100.00;99213.88;4963514;29;20043;-93
2024/01/18 15:33:56;;;;;;;;;;;;;;;-4.15;100.00;99218.06;4964335;29;20264;-92
2024/01/18 15:36:24;;;;;;;48.53;18.47;;;;;;;-4.18;100.00;99215.44;4946013;29;19926;-93
2024/01/18 15:38:52;;;;;;;44.60;21.97;;;;;;;-4.25;100.00;99224.78;4962425;29;20047;-92
2024/01/18 15:41:19;;;;;;;51.77;25.07;;;;;;;-4.30;100.00;99226.41;4962053;29;20062;-92
2024/01/18 15:43:47;;;;;;;53.33;24.87;;;;;;;-4.32;100.00;99238.41;4962388;29;20170;-94
2024/01/18 15:46:19;;;;;;;53.43;24.60;;;;;;;-4.41;100.00;99251.16;4962678;29;20047;-92
2024/01/18 15:48:53;;;;;;;47.63;24.27;;;;;;;-4.47;100.00;99253.63;4962191;29;20043;-93
2024/01/18 15:51:22;;;;;;;40.88;18.88;;;;;;;-4.56;100.00;99247.47;4960383;29;20047;-92
2024/01/18 15:53:51;;;;;;;32.53;15.37;;;;;;;-4.60;100.00;99258.59;4958576;29;20473;-92
2024/01/18 15:56:21;;;;;;;27.87;14.47;;;;;;;-4.67;100.00;99256.72;4962641;28;20482;-91
2024/01/18 15:58:48;;;;;;;29.33;13.33;;;;;;;-4.70;100.00;99254.13;4959036;29;20050;-92
2024/01/18 16:01:17;;;;;;;27.07;14.17;;;;;;;-4.76;100.00;99271.16;4959675;29;20051;-91
2024/01/18 16:03:45;;;;;;;29.97;14.93;;;;;;;-4.72;100.00;99275.50;4957804;29;20059;-92
2024/01/18 16:06:13;;;;;;;25.07;14.17;;;;;;;-4.80;100.00;99277.94;4942631;29;20071;-92
2024/01/18 16:08:42;;;;;;;26.53;13.30;;;;;;;-4.78;100.00;99280.59;4959515;29;20126;-92
2024/01/18 16:11:10;;;;;;;29.77;14.37;;;;;;;-4.85;100.00;99298.50;4944274;29;20435;-92
2024/01/18 16:13:39;;;;;;;29.10;14.70;;;;;;;-4.90;100.00;99304.38;4942283;29;20486;-91
2024/01/18 16:16:07;;;;;;;27.67;16.27;;;;;;;-4.85;100.00;99313.06;4943789;29;20051;-93
2024/01/18 16:18:35;;;;;;;29.30;16.27;;;;;;;-4.84;100.00;99322.53;4961844;29;20051;-93
2024/01/18 16:21:03;;;;;;;27.13;15.57;;;;;;;-4.83;100.00;99327.72;4960046;29;20043;-93
2024/01/18 16:23:30;;;;;;;31.30;17.33;;;;;;;-4.74;100.00;99321.88;4959539;29;20098;-92
2024/01/18 16:25:58;;;;;;;30.10;16.73;;;;;;;-4.74;100.00;99323.56;4960575;28;20054;-92
2024/01/18 16:28:27;;;;;;;35.77;18.73;;;;;;;-4.62;100.00;99327.28;4960355;29;20142;-94
2024/01/18 16:30:54;;;;;;;32.93;18.27;;;;;;;-4.54;100.00;99330.84;4960597;29;20510;-93
2024/01/18 16:33:22;;;;;;;35.53;18.60;;;;;;;-4.51;100.00;99335.19;4958977;29;20106;-91
2024/01/18 16:35:50;;;;;;;32.07;17.93;;;;;;;-4.49;100.00;99340.38;4958965;29;20047;-93
2024/01/18 16:38:17;;;;;;;31.30;17.10;;;;;;;-4.46;100.00;99343.00;4959250;29;20043;-92
2024/01/18 16:40:45;;;;;;;30.97;16.70;;;;;;;-4.45;100.00;99344.75;4959252;29;20047;-92
2024/01/18 16:43:15;;;;;;;31.90;17.67;;;;;;;-4.50;100.00;99356.69;4945485;29;20054;-93
2024/01/18 16:45:44;;;;;;;32.63;16.73;;;;;;;-4.54;100.00;99353.16;4960371;29;20043;-92
2024/01/18 16:48:12;;;;;;;36.17;18.07;;;;;;;-4.52;100.00;99361.81;4927621;29;20036;-92
2024/01/18 16:50:39;;;;;;;31.13;15.90;;;;;;;-4.62;100.00;99358.19;4958526;29;20058;-92
2024/01/18 16:53:07;;;;;;;27.37;14.80;;;;;;;-4.69;100.00;99364.06;4958810;29;20043;-91
2024/01/18 16:55:37;;;;;;;27.67;14.67;;;;;;;-4.79;100.00;99374.13;4958896;29;20450;-92
2024/01/18 16:58:04;;;;;;;32.40;15.90;;;;;;;-4.79;100.00;99379.28;4959215;29;20147;-91
2024/01/18 17:00:32;;;;;;;31.43;16.20;;;;;;;-4.81;100.00;99381.84;4959145;29;20075;-93
